createdAt,value
2018-12-14T00:01:36.635Z,12.77
2018-12-14T00:04:05.211Z,12.67
2018-12-14T00:06:33.422Z,11.40
2018-12-14T00:09:01.909Z,12.50
2018-12-14T00:11:30.078Z,12.90
2018-12-14T00:13:58.400Z,12.27
2018-12-14T00:16:26.653Z,12.37
2018-12-14T00:18:54.921Z,12.33
2018-12-14T00:21:23.105Z,12.77
2018-12-14T00:23:51.426Z,13.00
2018-12-14T00:26:19.661Z,12.87
2018-12-14T00:28:47.909Z,13.07
2018-12-14T00:31:16.112Z,13.20
2018-12-14T00:33:44.289Z,13.03
2018-12-14T00:36:12.510Z,12.33
2018-12-14T00:38:40.949Z,13.30
2018-12-14T00:41:09.166Z,13.20
2018-12-14T00:43:37.350Z,12.97
2018-12-14T00:46:05.602Z,13.53
2018-12-14T00:48:33.837Z,14.07
2018-12-14T00:51:02.317Z,13.40
2018-12-14T00:53:30.500Z,12.90
2018-12-14T00:55:58.660Z,13.40
2018-12-14T00:58:27.060Z,13.73
2018-12-14T01:00:55.263Z,13.80
2018-12-14T01:03:23.818Z,13.83
2018-12-14T01:05:52.026Z,14.13
2018-12-14T01:08:20.360Z,13.37
2018-12-14T01:10:53.652Z,14.35
2018-12-14T01:13:21.845Z,14.37
2018-12-14T01:15:50.065Z,14.00
2018-12-14T01:18:18.462Z,13.37
2018-12-14T01:20:46.646Z,14.63
2018-12-14T01:23:14.951Z,14.03
2018-12-14T01:25:43.165Z,14.57
2018-12-14T01:28:11.594Z,14.27
2018-12-14T01:30:40.188Z,13.13
2018-12-14T01:33:08.448Z,14.37
2018-12-14T01:35:36.811Z,14.37
2018-12-14T01:38:05.097Z,13.90
2018-12-14T01:40:33.510Z,14.23
2018-12-14T01:43:01.728Z,14.67
2018-12-14T01:45:30.153Z,14.17
2018-12-14T01:47:58.461Z,14.18
2018-12-14T01:50:26.714Z,14.80
2018-12-14T01:52:55.029Z,13.90
2018-12-14T01:55:23.287Z,13.60
2018-12-14T01:57:51.653Z,13.63
2018-12-14T02:00:19.858Z,14.27
2018-12-14T02:02:48.107Z,14.77
2018-12-14T02:05:16.345Z,13.50
2018-12-14T02:07:44.586Z,14.83
2018-12-14T02:10:13.124Z,14.13
2018-12-14T02:12:41.956Z,13.30
2018-12-14T02:15:10.215Z,13.93
2018-12-14T02:17:38.394Z,14.20
2018-12-14T02:20:06.949Z,13.90
2018-12-14T02:22:35.101Z,14.93
2018-12-14T02:25:03.404Z,15.03
2018-12-14T02:27:31.559Z,14.50
2018-12-14T02:30:04.958Z,15.23
2018-12-14T02:32:33.436Z,14.17
2018-12-14T02:35:01.678Z,14.60
2018-12-14T02:37:29.990Z,14.60
2018-12-14T02:39:58.346Z,14.50
2018-12-14T02:42:26.742Z,15.27
2018-12-14T02:44:55.190Z,14.07
2018-12-14T02:47:23.419Z,15.37
2018-12-14T02:49:51.598Z,14.37
2018-12-14T02:52:19.833Z,14.43
2018-12-14T02:54:48.042Z,13.83
2018-12-14T02:57:16.235Z,14.17
2018-12-14T02:59:44.414Z,13.93
2018-12-14T03:02:12.730Z,14.77
2018-12-14T03:04:41.065Z,14.27
2018-12-14T03:07:09.417Z,13.73
2018-12-14T03:09:37.851Z,14.37
2018-12-14T03:12:06.049Z,14.87
2018-12-14T03:14:34.381Z,14.63
2018-12-14T03:17:03.717Z,15.37
2018-12-14T03:19:31.892Z,15.33
2018-12-14T03:22:00.225Z,14.87
2018-12-14T03:24:28.427Z,15.40
2018-12-14T03:26:56.807Z,15.10
2018-12-14T03:29:25.006Z,15.33
2018-12-14T03:31:53.251Z,15.40
2018-12-14T03:34:21.458Z,16.23
2018-12-14T03:36:49.732Z,16.47
2018-12-14T03:39:18.062Z,16.07
2018-12-14T03:41:46.266Z,15.60
2018-12-14T03:44:14.628Z,14.90
2018-12-14T03:46:42.821Z,15.43
2018-12-14T03:49:10.973Z,16.33
2018-12-14T03:51:39.212Z,15.30
2018-12-14T03:54:07.426Z,15.37
2018-12-14T03:56:35.603Z,15.20
2018-12-14T03:59:03.969Z,15.73
2018-12-14T04:01:32.331Z,15.70
2018-12-14T04:04:00.657Z,14.80
2018-12-14T04:06:28.952Z,15.97
2018-12-14T04:08:57.310Z,15.77
2018-12-14T04:11:25.584Z,16.53
2018-12-14T04:13:53.761Z,15.73
2018-12-14T04:16:22.099Z,16.27
2018-12-14T04:18:50.400Z,16.10
2018-12-14T04:21:18.600Z,16.50
2018-12-14T04:23:46.816Z,15.47
2018-12-14T04:26:15.571Z,15.60
2018-12-14T04:28:44.020Z,15.43
2018-12-14T04:31:12.434Z,15.60
2018-12-14T04:33:41.018Z,15.30
2018-12-14T04:36:09.265Z,15.70
2018-12-14T04:38:37.475Z,15.10
2018-12-14T04:41:05.810Z,14.97
2018-12-14T04:43:33.976Z,15.33
2018-12-14T04:46:02.309Z,15.10
2018-12-14T04:48:30.470Z,15.20
2018-12-14T04:50:58.665Z,15.50
2018-12-14T04:53:26.918Z,14.83
2018-12-14T04:55:55.494Z,14.90
2018-12-14T04:58:23.684Z,16.00
2018-12-14T05:00:51.852Z,16.03
2018-12-14T05:03:20.038Z,15.30
2018-12-14T05:05:48.385Z,14.23
2018-12-14T05:08:16.676Z,14.47
2018-12-14T05:10:44.937Z,14.43
2018-12-14T05:13:13.130Z,15.73
2018-12-14T05:15:41.316Z,15.13
2018-12-14T05:18:10.207Z,15.57
2018-12-14T05:20:39.145Z,15.23
2018-12-14T05:23:07.666Z,15.73
2018-12-14T05:25:35.948Z,14.43
2018-12-14T05:28:04.320Z,14.30
2018-12-14T05:30:32.490Z,14.43
2018-12-14T05:33:00.842Z,15.63
2018-12-14T05:35:29.044Z,14.70
2018-12-14T05:37:57.318Z,13.80
2018-12-14T05:40:25.534Z,14.30
2018-12-14T05:42:53.866Z,14.80
2018-12-14T05:45:22.110Z,15.20
2018-12-14T05:47:50.469Z,15.37
2018-12-14T05:50:18.917Z,14.53
2018-12-14T05:52:47.134Z,14.50
2018-12-14T05:55:15.469Z,14.53
2018-12-14T05:57:43.854Z,14.50
2018-12-14T06:00:13.283Z,14.67
2018-12-14T06:02:41.605Z,14.60
2018-12-14T06:05:09.815Z,14.73
2018-12-14T06:07:37.993Z,14.43
2018-12-14T06:10:07.091Z,16.90
2018-12-14T06:12:35.757Z,14.53
2018-12-14T06:15:04.420Z,15.10
2018-12-14T06:17:32.701Z,14.50
2018-12-14T06:20:01.005Z,14.77
2018-12-14T06:22:29.376Z,14.47
2018-12-14T06:24:57.655Z,14.97
2018-12-14T06:27:25.902Z,13.83
2018-12-14T06:29:54.224Z,14.47
2018-12-14T06:32:22.407Z,14.17
2018-12-14T06:34:50.780Z,14.50
2018-12-14T06:37:19.402Z,14.50
2018-12-14T06:39:47.753Z,16.17
2018-12-14T06:42:16.265Z,13.40
2018-12-14T06:44:44.612Z,14.47
2018-12-14T06:47:12.815Z,14.07
2018-12-14T06:49:42.353Z,14.53
2018-12-14T06:52:10.533Z,14.17
2018-12-14T06:54:38.974Z,14.47
2018-12-14T06:57:07.317Z,14.87
2018-12-14T06:59:35.669Z,13.97
2018-12-14T07:02:03.889Z,14.70
2018-12-14T07:04:32.169Z,14.58
2018-12-14T07:07:04.078Z,15.20
2018-12-14T07:09:31.212Z,12.77
2018-12-14T07:12:00.132Z,15.20
2018-12-14T07:14:28.434Z,21.67
2018-12-14T07:16:56.927Z,24.07
2018-12-14T07:19:25.335Z,18.33
2018-12-14T07:21:55.323Z,15.27
2018-12-14T07:24:23.507Z,15.20
2018-12-14T07:26:52.074Z,14.73
2018-12-14T07:29:20.336Z,13.93
2018-12-14T07:31:48.623Z,15.13
2018-12-14T07:34:16.893Z,14.87
2018-12-14T07:36:45.165Z,15.23
2018-12-14T07:39:13.421Z,15.13
2018-12-14T07:41:41.849Z,15.90
2018-12-14T07:44:10.794Z,14.80
2018-12-14T07:46:39.074Z,15.27
2018-12-14T07:49:07.322Z,15.67
2018-12-14T07:51:35.755Z,15.57
2018-12-14T07:54:04.036Z,14.57
2018-12-14T07:56:32.758Z,15.77
2018-12-14T07:59:01.275Z,15.33
2018-12-14T08:01:29.638Z,15.77
2018-12-14T08:03:57.884Z,15.70
2018-12-14T08:06:26.148Z,15.67
2018-12-14T08:08:54.404Z,16.30
2018-12-14T08:11:22.680Z,16.63
2018-12-14T08:13:50.974Z,16.43
2018-12-14T08:16:19.185Z,16.63
2018-12-14T08:18:47.444Z,16.00
2018-12-14T08:21:15.628Z,16.93
2018-12-14T08:23:43.896Z,15.97
2018-12-14T08:26:12.162Z,16.07
2018-12-14T08:28:40.454Z,16.67
2018-12-14T08:31:08.869Z,15.90
2018-12-14T08:33:37.112Z,15.83
2018-12-14T08:36:05.522Z,15.30
2018-12-14T08:38:33.728Z,16.43
2018-12-14T08:41:02.004Z,16.33
2018-12-14T08:43:30.460Z,17.30
2018-12-14T08:45:58.889Z,15.87
2018-12-14T08:48:27.184Z,16.40
2018-12-14T08:50:55.758Z,16.03
2018-12-14T08:53:24.738Z,16.93
2018-12-14T08:55:53.149Z,17.10
2018-12-14T08:58:21.461Z,16.37
2018-12-14T09:00:49.672Z,16.67
2018-12-14T09:03:18.091Z,16.00
2018-12-14T09:05:46.348Z,15.50
2018-12-14T09:08:14.812Z,15.30
2018-12-14T09:10:43.016Z,15.20
2018-12-14T09:13:11.230Z,16.07
2018-12-14T09:15:39.445Z,16.77
2018-12-14T09:18:07.655Z,15.43
2018-12-14T09:20:35.896Z,15.90
2018-12-14T09:23:04.615Z,16.27
2018-12-14T09:25:33.010Z,16.05
2018-12-14T09:28:01.262Z,15.20
2018-12-14T09:30:29.474Z,14.87
2018-12-14T09:32:57.804Z,14.57
2018-12-14T09:35:26.053Z,15.50
2018-12-14T09:37:54.464Z,15.70
2018-12-14T09:40:22.825Z,16.20
2018-12-14T09:42:51.070Z,16.10
2018-12-14T09:45:19.402Z,15.03
2018-12-14T09:47:47.749Z,15.07
2018-12-14T09:50:16.099Z,15.10
2018-12-14T09:52:44.421Z,15.47
2018-12-14T09:55:12.613Z,14.57
2018-12-14T09:57:41.045Z,14.33
2018-12-14T10:00:09.397Z,14.80
2018-12-14T10:02:37.748Z,14.83
2018-12-14T10:05:06.832Z,14.20
2018-12-14T10:07:35.176Z,13.90
2018-12-14T10:10:03.885Z,13.37
2018-12-14T10:12:32.085Z,14.53
2018-12-14T10:15:00.446Z,13.63
2018-12-14T10:17:28.695Z,13.83
2018-12-14T10:19:56.880Z,13.57
2018-12-14T10:22:25.077Z,13.33
2018-12-14T10:24:53.266Z,12.70
2018-12-14T10:27:22.209Z,12.97
2018-12-14T10:29:50.640Z,13.13
2018-12-14T10:32:18.814Z,12.93
2018-12-14T10:34:47.035Z,13.70
2018-12-14T10:37:15.496Z,12.50
2018-12-14T10:39:43.665Z,12.33
2018-12-14T10:42:12.296Z,12.80
2018-12-14T10:44:40.842Z,11.93
2018-12-14T10:47:09.652Z,12.43
2018-12-14T10:49:37.925Z,10.87
2018-12-14T10:52:06.136Z,12.13
2018-12-14T10:54:34.885Z,12.30
2018-12-14T10:57:03.086Z,11.73
2018-12-14T10:59:31.351Z,11.30
2018-12-14T11:01:59.538Z,11.67
2018-12-14T11:04:28.041Z,12.73
2018-12-14T11:06:56.374Z,11.90
2018-12-14T11:09:24.714Z,12.37
2018-12-14T11:11:53.062Z,10.72
2018-12-14T11:14:21.447Z,11.30
2018-12-14T11:16:49.996Z,11.70
2018-12-14T11:19:18.604Z,11.80
2018-12-14T11:21:47.015Z,11.93
2018-12-14T11:24:15.281Z,12.17
2018-12-14T11:26:43.958Z,11.97
2018-12-14T11:29:12.315Z,12.53
2018-12-14T11:31:40.612Z,11.70
2018-12-14T11:34:08.787Z,12.37
2018-12-14T11:36:37.015Z,12.57
2018-12-14T11:39:06.146Z,11.97
2018-12-14T11:41:34.429Z,12.50
2018-12-14T11:44:02.697Z,12.57
2018-12-14T11:46:31.404Z,11.18
2018-12-14T11:48:59.583Z,11.90
2018-12-14T11:51:27.774Z,11.87
2018-12-14T11:53:56.074Z,11.10
2018-12-14T11:56:24.325Z,11.57
2018-12-14T11:58:52.931Z,12.00
2018-12-14T12:01:21.087Z,12.40
2018-12-14T12:03:49.405Z,11.60
2018-12-14T12:06:17.598Z,12.53
2018-12-14T12:08:46.094Z,13.80
2018-12-14T12:11:14.323Z,22.20
2018-12-14T12:13:42.577Z,25.43
2018-12-14T12:16:10.828Z,18.83
2018-12-14T12:18:39.037Z,21.00
2018-12-14T12:21:07.331Z,12.33
2018-12-14T12:23:35.561Z,12.30
2018-12-14T12:26:03.737Z,12.40
2018-12-14T12:28:32.879Z,12.20
2018-12-14T12:31:01.058Z,12.30
2018-12-14T12:33:29.574Z,12.03
2018-12-14T12:35:57.865Z,11.77
2018-12-14T12:38:26.041Z,12.73
2018-12-14T12:40:54.954Z,12.43
2018-12-14T12:43:23.149Z,11.73
2018-12-14T12:45:51.631Z,12.47
2018-12-14T12:48:19.800Z,12.20
2018-12-14T12:50:48.058Z,12.40
2018-12-14T12:53:18.838Z,11.40
2018-12-14T12:55:47.534Z,12.43
2018-12-14T12:58:15.753Z,11.90
2018-12-14T13:00:43.993Z,11.57
2018-12-14T13:03:12.209Z,11.00
2018-12-14T13:05:40.444Z,11.37
2018-12-14T13:08:08.656Z,11.33
2018-12-14T13:10:37.294Z,11.73
2018-12-14T13:13:05.705Z,11.67
2018-12-14T13:15:34.819Z,11.83
2018-12-14T13:18:03.043Z,12.07
2018-12-14T13:20:31.277Z,11.30
2018-12-14T13:22:59.832Z,11.90
2018-12-14T13:25:28.173Z,11.20
2018-12-14T13:27:56.442Z,11.97
2018-12-14T13:30:24.608Z,11.40
2018-12-14T13:32:52.821Z,11.53
2018-12-14T13:35:21.281Z,11.53
2018-12-14T13:37:49.646Z,12.00
2018-12-14T13:40:17.959Z,11.17
2018-12-14T13:42:46.527Z,12.47
2018-12-14T13:45:14.802Z,11.53
2018-12-14T13:47:43.279Z,11.90
2018-12-14T13:50:11.597Z,11.03
2018-12-14T13:52:39.840Z,12.37
2018-12-14T13:55:08.045Z,11.87
2018-12-14T13:57:37.103Z,11.67
2018-12-14T14:00:06.340Z,12.43
2018-12-14T14:02:34.583Z,11.87
2018-12-14T14:05:02.815Z,11.83
2018-12-14T14:07:31.559Z,11.80
2018-12-14T14:09:59.882Z,12.40
2018-12-14T14:12:31.001Z,11.40
2018-12-14T14:14:58.485Z,11.83
2018-12-14T14:17:26.813Z,12.47
2018-12-14T14:19:55.107Z,12.10
2018-12-14T14:22:23.562Z,11.20
2018-12-14T14:24:52.153Z,11.07
2018-12-14T14:27:20.523Z,11.70
2018-12-14T14:29:48.722Z,11.47
2018-12-14T14:32:16.953Z,11.97
2018-12-14T14:34:45.159Z,11.70
2018-12-14T14:37:13.379Z,12.10
2018-12-14T14:39:41.627Z,11.30
2018-12-14T14:42:09.806Z,11.57
2018-12-14T14:44:39.347Z,11.50
2018-12-14T14:47:07.934Z,11.60
2018-12-14T14:49:36.122Z,11.70
2018-12-14T14:52:04.510Z,11.87
2018-12-14T14:54:32.794Z,12.10
2018-12-14T14:57:01.309Z,11.30
2018-12-14T14:59:29.599Z,11.07
2018-12-14T15:01:57.882Z,11.90
2018-12-14T15:04:26.302Z,11.33
2018-12-14T15:06:54.595Z,11.83
2018-12-14T15:09:22.884Z,11.47
2018-12-14T15:11:51.129Z,11.60
2018-12-14T15:14:19.769Z,11.17
2018-12-14T15:16:48.030Z,11.10
2018-12-14T15:19:16.366Z,11.13
2018-12-14T15:21:44.603Z,12.43
2018-12-14T15:24:12.822Z,12.07
2018-12-14T15:26:41.830Z,11.87
2018-12-14T15:29:10.218Z,11.53
2018-12-14T15:31:38.486Z,11.20
2018-12-14T15:34:07.053Z,11.50
2018-12-14T15:36:35.368Z,12.20
2018-12-14T15:39:04.630Z,11.53
2018-12-14T15:41:32.865Z,12.40
2018-12-14T15:44:01.290Z,12.00
2018-12-14T15:46:29.573Z,11.37
2018-12-14T15:48:57.865Z,12.33
2018-12-14T15:51:26.156Z,11.40
2018-12-14T15:53:54.772Z,12.77
2018-12-14T15:56:23.171Z,11.80
2018-12-14T15:58:51.644Z,11.10
2018-12-14T16:01:20.360Z,11.70
2018-12-14T16:03:48.851Z,11.30
2018-12-14T16:06:17.306Z,12.03
2018-12-14T16:08:45.834Z,11.73
2018-12-14T16:11:14.273Z,11.67
2018-12-14T16:13:42.529Z,11.23
2018-12-14T16:16:11.042Z,12.03
2018-12-14T16:18:39.317Z,11.00
2018-12-14T16:21:07.649Z,10.53
2018-12-14T16:23:36.031Z,10.73
2018-12-14T16:26:04.581Z,11.37
2018-12-14T16:28:32.945Z,9.03
2018-12-14T16:31:01.257Z,13.17
2018-12-14T16:33:30.001Z,16.40
2018-12-14T16:35:58.380Z,11.80
2018-12-14T16:38:26.689Z,12.13
2018-12-14T16:40:55.069Z,12.03
2018-12-14T16:43:23.499Z,10.53
2018-12-14T16:45:51.941Z,11.90
2018-12-14T16:48:20.427Z,11.50
2018-12-14T16:50:50.109Z,12.27
2018-12-14T16:53:18.732Z,12.05
2018-12-14T16:55:47.582Z,11.57
2018-12-14T16:58:16.061Z,12.50
2018-12-14T17:00:44.723Z,11.63
2018-12-14T17:03:13.146Z,11.40
2018-12-14T17:05:41.666Z,11.77
2018-12-14T17:08:10.229Z,11.63
2018-12-14T17:10:38.772Z,11.23
2018-12-14T17:13:07.202Z,11.20
2018-12-14T17:15:35.795Z,11.50
2018-12-14T17:18:04.780Z,11.35
2018-12-14T17:20:33.501Z,11.80
2018-12-14T17:23:02.273Z,10.97
2018-12-14T17:25:30.695Z,11.77
2018-12-14T17:27:59.334Z,11.00
2018-12-14T17:30:27.824Z,10.77
2018-12-14T17:32:56.486Z,11.53
2018-12-14T17:35:24.948Z,11.50
2018-12-14T17:37:53.307Z,11.07
2018-12-14T17:40:21.700Z,11.30
2018-12-14T17:42:50.163Z,11.10
2018-12-14T17:45:18.716Z,10.90
2018-12-14T17:47:47.105Z,11.20
2018-12-14T17:50:15.389Z,11.40
2018-12-14T17:52:43.978Z,14.00
2018-12-14T17:55:12.625Z,12.27
2018-12-14T17:57:41.151Z,11.17
2018-12-14T18:00:09.584Z,12.03
2018-12-14T18:02:38.211Z,11.83
2018-12-14T18:05:06.899Z,12.40
2018-12-14T18:07:35.605Z,12.33
2018-12-14T18:10:04.159Z,12.70
2018-12-14T18:12:32.466Z,12.40
2018-12-14T18:15:01.616Z,12.23
2018-12-14T18:17:30.155Z,12.17
2018-12-14T18:19:58.615Z,12.03
2018-12-14T18:22:28.318Z,12.60
2018-12-14T18:24:57.364Z,12.77
2018-12-14T18:27:25.811Z,12.73
2018-12-14T18:29:54.339Z,13.07
2018-12-14T18:32:22.581Z,12.37
2018-12-14T18:34:51.426Z,13.22
2018-12-14T18:37:19.974Z,12.60
2018-12-14T18:39:48.258Z,12.70
2018-12-14T18:42:17.343Z,13.03
2018-12-14T18:44:45.661Z,11.87
2018-12-14T18:47:14.312Z,13.00
2018-12-14T18:49:42.877Z,12.60
2018-12-14T18:52:11.487Z,12.33
2018-12-14T18:54:41.582Z,12.37
2018-12-14T18:57:10.350Z,12.43
2018-12-14T18:59:38.844Z,12.30
2018-12-14T19:02:07.510Z,12.20
2018-12-14T19:04:36.082Z,12.90
2018-12-14T19:07:04.877Z,12.97
2018-12-14T19:09:33.356Z,12.20
2018-12-14T19:12:01.873Z,12.47
2018-12-14T19:14:30.305Z,13.60
2018-12-14T19:16:58.725Z,13.90
2018-12-14T19:19:27.244Z,12.67
2018-12-14T19:21:55.720Z,13.47
2018-12-14T19:24:24.219Z,14.33
2018-12-14T19:26:52.918Z,14.10
2018-12-14T19:29:21.597Z,12.80
2018-12-14T19:31:50.222Z,13.07
2018-12-14T19:34:18.634Z,12.93
2018-12-14T19:36:47.152Z,13.77
2018-12-14T19:39:16.330Z,13.53
2018-12-14T19:41:45.187Z,13.03
2018-12-14T19:44:13.822Z,13.70
2018-12-14T19:46:46.887Z,13.73
2018-12-14T19:49:15.301Z,14.20
2018-12-14T19:51:43.880Z,13.90
2018-12-14T19:54:12.523Z,14.43
2018-12-14T19:56:41.316Z,14.77
2018-12-14T19:59:09.827Z,12.97
2018-12-14T20:01:38.354Z,14.03
2018-12-14T20:04:06.672Z,14.50
2018-12-14T20:06:35.135Z,14.00
2018-12-14T20:09:05.165Z,13.33
2018-12-14T20:11:33.451Z,13.93
2018-12-14T20:14:01.823Z,15.13
2018-12-14T20:16:30.296Z,14.53
2018-12-14T20:18:58.578Z,14.27
2018-12-14T20:21:27.092Z,13.93
2018-12-14T20:23:56.115Z,14.33
2018-12-14T20:26:24.470Z,13.80
2018-12-14T20:28:52.820Z,15.40
2018-12-14T20:31:21.088Z,14.33
2018-12-14T20:33:49.360Z,14.90
2018-12-14T20:36:18.681Z,14.67
2018-12-14T20:38:47.114Z,15.60
2018-12-14T20:41:15.379Z,15.20
2018-12-14T20:43:43.822Z,14.33
2018-12-14T20:46:12.378Z,14.50
2018-12-14T20:48:40.687Z,13.83
2018-12-14T20:51:09.008Z,14.73
2018-12-14T20:53:38.211Z,15.13
2018-12-14T20:56:07.332Z,15.23
2018-12-14T20:58:35.804Z,15.80
2018-12-14T21:01:04.250Z,14.77
2018-12-14T21:03:32.541Z,14.80
2018-12-14T21:06:01.573Z,15.13
2018-12-14T21:08:29.981Z,16.23
2018-12-14T21:10:59.183Z,15.70
2018-12-14T21:13:27.472Z,15.53
2018-12-14T21:15:55.867Z,14.50
2018-12-14T21:18:24.369Z,14.37
2018-12-14T21:20:52.879Z,16.53
2018-12-14T21:23:21.241Z,16.10
2018-12-14T21:25:49.565Z,16.57
2018-12-14T21:28:22.361Z,16.20
2018-12-14T21:30:50.930Z,16.17
2018-12-14T21:33:19.366Z,15.70
2018-12-14T21:35:48.037Z,15.90
2018-12-14T21:38:16.503Z,16.10
2018-12-14T21:40:44.896Z,16.43
2018-12-14T21:43:13.688Z,16.47
2018-12-14T21:45:42.687Z,15.03
2018-12-14T21:48:11.182Z,17.07
2018-12-14T21:50:40.054Z,15.87
2018-12-14T21:53:14.291Z,15.97
2018-12-14T21:55:39.083Z,16.60
2018-12-14T21:58:07.834Z,15.73
2018-12-14T22:00:36.320Z,16.30
2018-12-14T22:03:05.544Z,15.23
2018-12-14T22:05:34.207Z,16.60
2018-12-14T22:08:02.794Z,15.10
2018-12-14T22:10:31.357Z,16.60
2018-12-14T22:12:59.757Z,16.37
2018-12-14T22:15:28.419Z,16.63
2018-12-14T22:17:56.891Z,16.60
2018-12-14T22:20:25.361Z,16.03
2018-12-14T22:22:54.175Z,16.30
2018-12-14T22:25:22.853Z,15.90
2018-12-14T22:27:52.230Z,16.53
2018-12-14T22:30:20.815Z,17.10
2018-12-14T22:32:49.474Z,16.67
2018-12-14T22:35:18.140Z,17.17
2018-12-14T22:37:46.996Z,17.67
2018-12-14T22:40:15.406Z,16.87
2018-12-14T22:42:43.977Z,16.27
2018-12-14T22:45:12.318Z,17.07
2018-12-14T22:47:41.313Z,17.10
2018-12-14T22:50:09.959Z,16.43
2018-12-14T22:52:38.314Z,16.87
2018-12-14T22:55:06.930Z,17.23
2018-12-14T22:57:35.247Z,16.60
2018-12-14T23:00:05.715Z,15.80
2018-12-14T23:02:34.321Z,17.53
2018-12-14T23:05:05.646Z,17.73
2018-12-14T23:07:34.148Z,16.77
2018-12-14T23:10:03.315Z,16.30
2018-12-14T23:12:31.713Z,16.33
2018-12-14T23:15:00.497Z,17.73
2018-12-14T23:17:28.851Z,17.70
2018-12-14T23:19:58.257Z,18.77
2018-12-14T23:22:27.289Z,17.53
2018-12-14T23:24:55.880Z,17.23
2018-12-14T23:27:24.160Z,17.30
2018-12-14T23:29:52.778Z,17.93
2018-12-14T23:32:21.464Z,17.20
2018-12-14T23:34:49.745Z,17.10
2018-12-14T23:37:18.188Z,16.53
2018-12-14T23:39:46.816Z,17.27
2018-12-14T23:42:15.139Z,17.13
2018-12-14T23:44:43.572Z,17.00
2018-12-14T23:47:12.403Z,18.10
2018-12-14T23:49:40.889Z,17.60
2018-12-14T23:52:09.260Z,16.80
2018-12-14T23:54:37.497Z,16.83
2018-12-14T23:57:12.115Z,17.27
2018-12-14T23:59:36.916Z,17.00
